sensor_id;sensor_type;location;lat;lon;timestamp;P1;durP1;ratioP1;P2;durP2;ratioP2
2041;SDS011;1026;51.460;7.252;2022-12-10T00:01:38;18.63;;;13.57;;
2041;SDS011;1026;51.460;7.252;2022-12-10T00:04:05;15.83;;;11.97;;
2041;SDS011;1026;51.460;7.252;2022-12-10T00:06:31;17.40;;;13.20;;
2041;SDS011;1026;51.460;7.252;2022-12-10T00:08:59;18.00;;;12.70;;
2041;SDS011;1026;51.460;7.252;2022-12-10T00:11:25;18.67;;;12.40;;
2041;SDS011;1026;51.460;7.252;2022-12-10T00:13:51;20.13;;;13.10;;
2041;SDS011;1026;51.460;7.252;2022-12-10T00:16:18;19.77;;;12.43;;
2041;SDS011;1026;51.460;7.252;2022-12-10T00:18:45;20.27;;;14.00;;
2041;SDS011;1026;51.460;7.252;2022-12-10T00:21:12;19.93;;;12.83;;
2041;SDS011;1026;51.460;7.252;2022-12-10T00:23:41;20.67;;;14.70;;
2041;SDS011;1026;51.460;7.252;2022-12-10T00:26:09;19.73;;;13.10;;
2041;SDS011;1026;51.460;7.252;2022-12-10T00:28:37;20.23;;;13.37;;
2041;SDS011;1026;51.460;7.252;2022-12-10T00:31:05;18.60;;;14.13;;
2041;SDS011;1026;51.460;7.252;2022-12-10T00:33:33;22.10;;;13.60;;
2041;SDS011;1026;51.460;7.252;2022-12-10T00:36:01;19.70;;;12.97;;
2041;SDS011;1026;51.460;7.252;2022-12-10T00:38:29;21.37;;;14.97;;
2041;SDS011;1026;51.460;7.252;2022-12-10T00:40:55;19.50;;;12.30;;
2041;SDS011;1026;51.460;7.252;2022-12-10T00:43:21;19.60;;;12.40;;
2041;SDS011;1026;51.460;7.252;2022-12-10T00:45:46;19.33;;;12.23;;
2041;SDS011;1026;51.460;7.252;2022-12-10T00:48:12;27.00;;;14.37;;
2041;SDS011;1026;51.460;7.252;2022-12-10T00:50:37;21.20;;;13.77;;
2041;SDS011;1026;51.460;7.252;2022-12-10T00:53:03;21.60;;;13.43;;
2041;SDS011;1026;51.460;7.252;2022-12-10T00:55:28;17.70;;;12.57;;
2041;SDS011;1026;51.460;7.252;2022-12-10T00:57:54;19.30;;;12.83;;
2041;SDS011;1026;51.460;7.252;2022-12-10T01:00:20;20.97;;;14.13;;
2041;SDS011;1026;51.460;7.252;2022-12-10T01:02:45;20.03;;;13.70;;
2041;SDS011;1026;51.460;7.252;2022-12-10T01:05:11;17.40;;;13.13;;
2041;SDS011;1026;51.460;7.252;2022-12-10T01:07:37;20.50;;;13.00;;
2041;SDS011;1026;51.460;7.252;2022-12-10T01:10:02;20.33;;;13.53;;
2041;SDS011;1026;51.460;7.252;2022-12-10T01:12:28;23.63;;;13.57;;
2041;SDS011;1026;51.460;7.252;2022-12-10T01:14:54;19.03;;;13.37;;
2041;SDS011;1026;51.460;7.252;2022-12-10T01:17:20;19.30;;;12.27;;
2041;SDS011;1026;51.460;7.252;2022-12-10T01:19:46;21.03;;;12.53;;
2041;SDS011;1026;51.460;7.252;2022-12-10T01:22:12;21.53;;;14.13;;
2041;SDS011;1026;51.460;7.252;2022-12-10T01:24:38;22.37;;;14.83;;
2041;SDS011;1026;51.460;7.252;2022-12-10T01:27:03;23.60;;;14.67;;
2041;SDS011;1026;51.460;7.252;2022-12-10T01:29:29;18.47;;;13.03;;
2041;SDS011;1026;51.460;7.252;2022-12-10T01:31:56;21.00;;;14.87;;
2041;SDS011;1026;51.460;7.252;2022-12-10T01:34:22;21.17;;;13.37;;
2041;SDS011;1026;51.460;7.252;2022-12-10T01:36:49;22.37;;;13.77;;
2041;SDS011;1026;51.460;7.252;2022-12-10T01:39:16;20.50;;;13.97;;
2041;SDS011;1026;51.460;7.252;2022-12-10T01:46:37;20.53;;;14.47;;
2041;SDS011;1026;51.460;7.252;2022-12-10T01:49:06;22.00;;;13.90;;
2041;SDS011;1026;51.460;7.252;2022-12-10T01:51:36;19.40;;;13.33;;
2041;SDS011;1026;51.460;7.252;2022-12-10T01:54:05;17.67;;;12.53;;
2041;SDS011;1026;51.460;7.252;2022-12-10T01:56:35;22.17;;;13.00;;
2041;SDS011;1026;51.460;7.252;2022-12-10T01:59:03;21.20;;;14.43;;
2041;SDS011;1026;51.460;7.252;2022-12-10T02:01:40;20.87;;;12.23;;
2041;SDS011;1026;51.460;7.252;2022-12-10T02:06:58;18.10;;;11.87;;
2041;SDS011;1026;51.460;7.252;2022-12-10T02:09:32;22.53;;;14.40;;
2041;SDS011;1026;51.460;7.252;2022-12-10T02:12:11;22.03;;;13.87;;
2041;SDS011;1026;51.460;7.252;2022-12-10T02:14:52;20.03;;;13.40;;
2041;SDS011;1026;51.460;7.252;2022-12-10T02:17:26;19.83;;;12.60;;
2041;SDS011;1026;51.460;7.252;2022-12-10T02:22:44;23.00;;;14.17;;
2041;SDS011;1026;51.460;7.252;2022-12-10T02:25:14;23.77;;;14.13;;
2041;SDS011;1026;51.460;7.252;2022-12-10T02:30:38;20.03;;;13.23;;
2041;SDS011;1026;51.460;7.252;2022-12-10T02:33:07;20.77;;;13.93;;
2041;SDS011;1026;51.460;7.252;2022-12-10T02:35:34;17.73;;;13.20;;
2041;SDS011;1026;51.460;7.252;2022-12-10T02:38:05;19.50;;;14.10;;
2041;SDS011;1026;51.460;7.252;2022-12-10T02:40:36;17.63;;;12.23;;
2041;SDS011;1026;51.460;7.252;2022-12-10T02:43:05;18.80;;;13.67;;
2041;SDS011;1026;51.460;7.252;2022-12-10T02:45:32;17.57;;;12.20;;
2041;SDS011;1026;51.460;7.252;2022-12-10T02:47:59;20.73;;;13.50;;
2041;SDS011;1026;51.460;7.252;2022-12-10T02:50:28;18.80;;;12.63;;
2041;SDS011;1026;51.460;7.252;2022-12-10T02:52:53;18.83;;;13.00;;
2041;SDS011;1026;51.460;7.252;2022-12-10T02:55:19;16.40;;;12.40;;
2041;SDS011;1026;51.460;7.252;2022-12-10T03:00:43;19.53;;;12.30;;
2041;SDS011;1026;51.460;7.252;2022-12-10T03:06:14;20.00;;;13.20;;
2041;SDS011;1026;51.460;7.252;2022-12-10T03:11:15;19.17;;;12.63;;
2041;SDS011;1026;51.460;7.252;2022-12-10T03:13:54;21.37;;;12.40;;
2041;SDS011;1026;51.460;7.252;2022-12-10T03:16:24;19.60;;;12.80;;
2041;SDS011;1026;51.460;7.252;2022-12-10T03:18:56;19.67;;;13.17;;
2041;SDS011;1026;51.460;7.252;2022-12-10T03:21:24;20.53;;;13.23;;
2041;SDS011;1026;51.460;7.252;2022-12-10T03:23:52;19.53;;;12.27;;
2041;SDS011;1026;51.460;7.252;2022-12-10T03:26:19;21.23;;;13.00;;
2041;SDS011;1026;51.460;7.252;2022-12-10T03:28:49;18.40;;;11.87;;
2041;SDS011;1026;51.460;7.252;2022-12-10T03:31:16;18.97;;;12.20;;
2041;SDS011;1026;51.460;7.252;2022-12-10T03:33:44;16.00;;;11.17;;
2041;SDS011;1026;51.460;7.252;2022-12-10T03:36:12;16.27;;;10.97;;
2041;SDS011;1026;51.460;7.252;2022-12-10T03:38:38;16.73;;;11.60;;
2041;SDS011;1026;51.460;7.252;2022-12-10T03:41:05;20.37;;;12.50;;
2041;SDS011;1026;51.460;7.252;2022-12-10T03:43:30;17.93;;;11.40;;
2041;SDS011;1026;51.460;7.252;2022-12-10T03:45:56;16.60;;;10.97;;
2041;SDS011;1026;51.460;7.252;2022-12-10T03:48:22;16.23;;;11.13;;
2041;SDS011;1026;51.460;7.252;2022-12-10T03:50:47;17.67;;;11.83;;
2041;SDS011;1026;51.460;7.252;2022-12-10T03:53:13;17.40;;;11.13;;
2041;SDS011;1026;51.460;7.252;2022-12-10T03:55:39;18.70;;;12.50;;
2041;SDS011;1026;51.460;7.252;2022-12-10T03:58:04;15.77;;;11.03;;
2041;SDS011;1026;51.460;7.252;2022-12-10T04:00:30;17.10;;;10.73;;
2041;SDS011;1026;51.460;7.252;2022-12-10T04:02:56;16.47;;;11.07;;
2041;SDS011;1026;51.460;7.252;2022-12-10T04:05:21;15.70;;;10.30;;
2041;SDS011;1026;51.460;7.252;2022-12-10T04:07:47;15.43;;;9.77;;
2041;SDS011;1026;51.460;7.252;2022-12-10T04:10:13;20.77;;;12.83;;
2041;SDS011;1026;51.460;7.252;2022-12-10T04:12:38;13.27;;;10.07;;
2041;SDS011;1026;51.460;7.252;2022-12-10T04:15:04;20.43;;;11.63;;
2041;SDS011;1026;51.460;7.252;2022-12-10T04:17:46;14.77;;;10.47;;
2041;SDS011;1026;51.460;7.252;2022-12-10T04:20:11;17.07;;;11.03;;
2041;SDS011;1026;51.460;7.252;2022-12-10T04:22:52;16.57;;;10.47;;
2041;SDS011;1026;51.460;7.252;2022-12-10T04:25:33;14.63;;;10.43;;
2041;SDS011;1026;51.460;7.252;2022-12-10T04:28:14;17.47;;;9.90;;
2041;SDS011;1026;51.460;7.252;2022-12-10T04:30:40;13.10;;;10.60;;
2041;SDS011;1026;51.460;7.252;2022-12-10T04:33:05;12.93;;;9.37;;
2041;SDS011;1026;51.460;7.252;2022-12-10T04:35:31;16.60;;;10.50;;
2041;SDS011;1026;51.460;7.252;2022-12-10T04:37:56;14.20;;;9.47;;
2041;SDS011;1026;51.460;7.252;2022-12-10T04:40:23;13.57;;;9.60;;
2041;SDS011;1026;51.460;7.252;2022-12-10T04:42:48;17.90;;;11.93;;
2041;SDS011;1026;51.460;7.252;2022-12-10T04:45:14;13.60;;;9.30;;
2041;SDS011;1026;51.460;7.252;2022-12-10T04:47:40;14.70;;;9.60;;
2041;SDS011;1026;51.460;7.252;2022-12-10T04:50:05;15.73;;;10.23;;
2041;SDS011;1026;51.460;7.252;2022-12-10T04:52:31;14.93;;;9.43;;
2041;SDS011;1026;51.460;7.252;2022-12-10T04:54:57;14.20;;;9.53;;
2041;SDS011;1026;51.460;7.252;2022-12-10T04:57:22;15.17;;;10.23;;
2041;SDS011;1026;51.460;7.252;2022-12-10T04:59:48;15.77;;;10.33;;
2041;SDS011;1026;51.460;7.252;2022-12-10T05:02:13;14.80;;;10.83;;
2041;SDS011;1026;51.460;7.252;2022-12-10T05:04:39;11.93;;;8.33;;
2041;SDS011;1026;51.460;7.252;2022-12-10T05:07:05;14.17;;;10.17;;
2041;SDS011;1026;51.460;7.252;2022-12-10T05:09:30;15.20;;;11.20;;
2041;SDS011;1026;51.460;7.252;2022-12-10T05:11:56;16.20;;;10.50;;
2041;SDS011;1026;51.460;7.252;2022-12-10T05:14:22;14.47;;;9.87;;
2041;SDS011;1026;51.460;7.252;2022-12-10T05:16:49;11.23;;;8.07;;
2041;SDS011;1026;51.460;7.252;2022-12-10T05:19:15;13.90;;;10.03;;
2041;SDS011;1026;51.460;7.252;2022-12-10T05:21:41;12.23;;;10.33;;
2041;SDS011;1026;51.460;7.252;2022-12-10T05:24:22;14.67;;;9.50;;
2041;SDS011;1026;51.460;7.252;2022-12-10T05:26:48;11.47;;;9.03;;
2041;SDS011;1026;51.460;7.252;2022-12-10T05:29:16;13.70;;;9.33;;
2041;SDS011;1026;51.460;7.252;2022-12-10T05:31:42;13.03;;;9.23;;
2041;SDS011;1026;51.460;7.252;2022-12-10T05:34:09;14.43;;;9.43;;
2041;SDS011;1026;51.460;7.252;2022-12-10T05:36:35;12.93;;;8.80;;
2041;SDS011;1026;51.460;7.252;2022-12-10T05:39:01;13.97;;;8.93;;
2041;SDS011;1026;51.460;7.252;2022-12-10T05:41:29;10.73;;;7.93;;
2041;SDS011;1026;51.460;7.252;2022-12-10T05:43:58;14.80;;;9.13;;
2041;SDS011;1026;51.460;7.252;2022-12-10T05:46:26;11.37;;;10.20;;
2041;SDS011;1026;51.460;7.252;2022-12-10T05:48:54;16.90;;;9.50;;
2041;SDS011;1026;51.460;7.252;2022-12-10T05:51:21;11.80;;;9.00;;
2041;SDS011;1026;51.460;7.252;2022-12-10T05:53:48;12.43;;;8.23;;
2041;SDS011;1026;51.460;7.252;2022-12-10T05:56:16;12.30;;;8.47;;
2041;SDS011;1026;51.460;7.252;2022-12-10T05:58:45;12.67;;;8.97;;
2041;SDS011;1026;51.460;7.252;2022-12-10T06:01:13;12.93;;;8.10;;
2041;SDS011;1026;51.460;7.252;2022-12-10T06:03:41;11.53;;;8.03;;
2041;SDS011;1026;51.460;7.252;2022-12-10T06:06:07;10.87;;;7.87;;
2041;SDS011;1026;51.460;7.252;2022-12-10T06:08:33;14.43;;;9.77;;
2041;SDS011;1026;51.460;7.252;2022-12-10T06:11:01;11.30;;;8.40;;
2041;SDS011;1026;51.460;7.252;2022-12-10T06:13:27;11.87;;;8.50;;
2041;SDS011;1026;51.460;7.252;2022-12-10T06:15:53;13.53;;;9.63;;
2041;SDS011;1026;51.460;7.252;2022-12-10T06:18:19;13.33;;;9.17;;
2041;SDS011;1026;51.460;7.252;2022-12-10T06:20:45;15.57;;;10.43;;
2041;SDS011;1026;51.460;7.252;2022-12-10T06:23:11;18.57;;;9.90;;
2041;SDS011;1026;51.460;7.252;2022-12-10T06:25:38;11.97;;;8.13;;
2041;SDS011;1026;51.460;7.252;2022-12-10T06:28:04;9.30;;;8.30;;
2041;SDS011;1026;51.460;7.252;2022-12-10T06:30:31;12.33;;;9.67;;
2041;SDS011;1026;51.460;7.252;2022-12-10T06:32:57;11.40;;;7.93;;
2041;SDS011;1026;51.460;7.252;2022-12-10T06:35:22;14.03;;;9.13;;
2041;SDS011;1026;51.460;7.252;2022-12-10T06:37:49;11.23;;;8.37;;
2041;SDS011;1026;51.460;7.252;2022-12-10T06:40:15;13.43;;;9.60;;
2041;SDS011;1026;51.460;7.252;2022-12-10T06:42:41;10.90;;;7.80;;
2041;SDS011;1026;51.460;7.252;2022-12-10T06:45:07;12.90;;;9.40;;
2041;SDS011;1026;51.460;7.252;2022-12-10T06:47:33;12.50;;;9.33;;
2041;SDS011;1026;51.460;7.252;2022-12-10T06:49:59;15.97;;;8.50;;
2041;SDS011;1026;51.460;7.252;2022-12-10T06:52:24;9.80;;;8.60;;
2041;SDS011;1026;51.460;7.252;2022-12-10T06:54:50;12.90;;;9.30;;
2041;SDS011;1026;51.460;7.252;2022-12-10T06:57:16;8.57;;;6.93;;
2041;SDS011;1026;51.460;7.252;2022-12-10T06:59:41;11.73;;;7.83;;
2041;SDS011;1026;51.460;7.252;2022-12-10T07:02:07;10.37;;;7.90;;
2041;SDS011;1026;51.460;7.252;2022-12-10T07:04:34;11.10;;;8.27;;
2041;SDS011;1026;51.460;7.252;2022-12-10T07:07:00;12.93;;;9.50;;
2041;SDS011;1026;51.460;7.252;2022-12-10T07:09:25;11.83;;;8.27;;
2041;SDS011;1026;51.460;7.252;2022-12-10T07:11:51;12.73;;;7.63;;
2041;SDS011;1026;51.460;7.252;2022-12-10T07:14:17;10.30;;;8.00;;
2041;SDS011;1026;51.460;7.252;2022-12-10T07:16:43;12.60;;;8.40;;
2041;SDS011;1026;51.460;7.252;2022-12-10T07:19:10;11.07;;;9.13;;
2041;SDS011;1026;51.460;7.252;2022-12-10T07:21:37;13.47;;;9.40;;
2041;SDS011;1026;51.460;7.252;2022-12-10T07:24:10;10.60;;;9.07;;
2041;SDS011;1026;51.460;7.252;2022-12-10T07:26:39;11.53;;;8.60;;
2041;SDS011;1026;51.460;7.252;2022-12-10T07:29:07;12.50;;;8.33;;
2041;SDS011;1026;51.460;7.252;2022-12-10T07:31:35;13.90;;;8.97;;
2041;SDS011;1026;51.460;7.252;2022-12-10T07:34:01;15.33;;;8.73;;
2041;SDS011;1026;51.460;7.252;2022-12-10T07:36:27;12.13;;;8.73;;
2041;SDS011;1026;51.460;7.252;2022-12-10T07:38:53;17.00;;;10.40;;
2041;SDS011;1026;51.460;7.252;2022-12-10T07:41:19;15.23;;;8.93;;
2041;SDS011;1026;51.460;7.252;2022-12-10T07:43:46;13.97;;;7.63;;
2041;SDS011;1026;51.460;7.252;2022-12-10T07:46:15;9.80;;;7.80;;
2041;SDS011;1026;51.460;7.252;2022-12-10T07:48:44;12.97;;;9.03;;
2041;SDS011;1026;51.460;7.252;2022-12-10T07:51:11;9.37;;;7.57;;
2041;SDS011;1026;51.460;7.252;2022-12-10T07:53:38;12.23;;;8.30;;
2041;SDS011;1026;51.460;7.252;2022-12-10T07:56:04;9.27;;;7.50;;
2041;SDS011;1026;51.460;7.252;2022-12-10T07:58:30;11.40;;;8.50;;
2041;SDS011;1026;51.460;7.252;2022-12-10T08:00:57;10.63;;;7.53;;
2041;SDS011;1026;51.460;7.252;2022-12-10T08:03:22;12.30;;;9.67;;
2041;SDS011;1026;51.460;7.252;2022-12-10T08:05:49;10.93;;;8.17;;
2041;SDS011;1026;51.460;7.252;2022-12-10T08:08:25;10.47;;;8.40;;
2041;SDS011;1026;51.460;7.252;2022-12-10T08:10:51;11.90;;;8.77;;
2041;SDS011;1026;51.460;7.252;2022-12-10T08:13:16;15.53;;;8.80;;
2041;SDS011;1026;51.460;7.252;2022-12-10T08:15:42;12.77;;;9.70;;
2041;SDS011;1026;51.460;7.252;2022-12-10T08:18:07;15.67;;;9.73;;
2041;SDS011;1026;51.460;7.252;2022-12-10T08:20:33;11.80;;;9.00;;
2041;SDS011;1026;51.460;7.252;2022-12-10T08:23:00;14.50;;;9.93;;
2041;SDS011;1026;51.460;7.252;2022-12-10T08:25:25;11.40;;;8.90;;
2041;SDS011;1026;51.460;7.252;2022-12-10T08:27:51;12.67;;;8.40;;
2041;SDS011;1026;51.460;7.252;2022-12-10T08:30:17;14.30;;;9.90;;
2041;SDS011;1026;51.460;7.252;2022-12-10T08:32:42;12.80;;;8.57;;
2041;SDS011;1026;51.460;7.252;2022-12-10T08:35:08;13.67;;;8.77;;
2041;SDS011;1026;51.460;7.252;2022-12-10T08:37:34;14.90;;;9.53;;
2041;SDS011;1026;51.460;7.252;2022-12-10T08:39:59;14.50;;;8.80;;
2041;SDS011;1026;51.460;7.252;2022-12-10T08:42:25;13.20;;;10.30;;
2041;SDS011;1026;51.460;7.252;2022-12-10T08:44:50;13.93;;;9.10;;
2041;SDS011;1026;51.460;7.252;2022-12-10T08:47:16;13.20;;;8.77;;
2041;SDS011;1026;51.460;7.252;2022-12-10T08:49:42;14.80;;;11.60;;
2041;SDS011;1026;51.460;7.252;2022-12-10T08:52:07;16.97;;;10.73;;
2041;SDS011;1026;51.460;7.252;2022-12-10T08:54:33;17.30;;;10.80;;
2041;SDS011;1026;51.460;7.252;2022-12-10T08:56:59;16.37;;;10.97;;
2041;SDS011;1026;51.460;7.252;2022-12-10T08:59:24;11.77;;;9.43;;
2041;SDS011;1026;51.460;7.252;2022-12-10T09:01:51;14.77;;;10.67;;
2041;SDS011;1026;51.460;7.252;2022-12-10T09:04:17;15.10;;;10.40;;
2041;SDS011;1026;51.460;7.252;2022-12-10T09:06:43;17.50;;;12.30;;
2041;SDS011;1026;51.460;7.252;2022-12-10T09:09:08;16.47;;;10.90;;
2041;SDS011;1026;51.460;7.252;2022-12-10T09:11:34;18.30;;;12.00;;
2041;SDS011;1026;51.460;7.252;2022-12-10T09:14:00;18.50;;;11.97;;
2041;SDS011;1026;51.460;7.252;2022-12-10T09:16:28;15.50;;;10.57;;
2041;SDS011;1026;51.460;7.252;2022-12-10T09:18:55;18.20;;;11.57;;
2041;SDS011;1026;51.460;7.252;2022-12-10T09:21:21;22.13;;;12.70;;
2041;SDS011;1026;51.460;7.252;2022-12-10T09:23:47;19.70;;;13.43;;
2041;SDS011;1026;51.460;7.252;2022-12-10T09:26:16;20.40;;;11.97;;
2041;SDS011;1026;51.460;7.252;2022-12-10T09:28:42;14.97;;;10.03;;
2041;SDS011;1026;51.460;7.252;2022-12-10T09:31:09;15.03;;;10.40;;
2041;SDS011;1026;51.460;7.252;2022-12-10T09:33:35;22.70;;;12.33;;
2041;SDS011;1026;51.460;7.252;2022-12-10T09:36:03;15.57;;;10.73;;
2041;SDS011;1026;51.460;7.252;2022-12-10T09:38:31;21.60;;;12.43;;
2041;SDS011;1026;51.460;7.252;2022-12-10T09:43:35;18.33;;;12.30;;
2041;SDS011;1026;51.460;7.252;2022-12-10T09:46:18;18.67;;;11.30;;
2041;SDS011;1026;51.460;7.252;2022-12-10T09:49:01;16.97;;;11.50;;
2041;SDS011;1026;51.460;7.252;2022-12-10T09:51:47;18.47;;;12.70;;
2041;SDS011;1026;51.460;7.252;2022-12-10T09:54:19;23.13;;;14.17;;
2041;SDS011;1026;51.460;7.252;2022-12-10T09:56:52;18.73;;;11.33;;
2041;SDS011;1026;51.460;7.252;2022-12-10T09:59:22;15.50;;;10.23;;
2041;SDS011;1026;51.460;7.252;2022-12-10T10:01:49;21.53;;;12.40;;
2041;SDS011;1026;51.460;7.252;2022-12-10T10:04:23;18.57;;;11.63;;
2041;SDS011;1026;51.460;7.252;2022-12-10T10:06:49;19.70;;;12.23;;
2041;SDS011;1026;51.460;7.252;2022-12-10T10:09:15;18.57;;;13.57;;
2041;SDS011;1026;51.460;7.252;2022-12-10T10:11:42;24.73;;;14.07;;
2041;SDS011;1026;51.460;7.252;2022-12-10T10:14:11;26.20;;;14.90;;
2041;SDS011;1026;51.460;7.252;2022-12-10T10:19:15;23.93;;;13.57;;
2041;SDS011;1026;51.460;7.252;2022-12-10T10:21:44;22.60;;;12.60;;
2041;SDS011;1026;51.460;7.252;2022-12-10T10:24:13;20.90;;;11.73;;
2041;SDS011;1026;51.460;7.252;2022-12-10T10:26:42;20.40;;;12.17;;
2041;SDS011;1026;51.460;7.252;2022-12-10T10:29:09;29.77;;;15.60;;
2041;SDS011;1026;51.460;7.252;2022-12-10T10:31:38;22.93;;;12.50;;
2041;SDS011;1026;51.460;7.252;2022-12-10T10:34:13;26.13;;;14.83;;
2041;SDS011;1026;51.460;7.252;2022-12-10T10:36:42;19.87;;;12.10;;
2041;SDS011;1026;51.460;7.252;2022-12-10T10:39:24;22.40;;;14.03;;
2041;SDS011;1026;51.460;7.252;2022-12-10T10:41:53;18.50;;;11.67;;
2041;SDS011;1026;51.460;7.252;2022-12-10T10:44:21;21.47;;;14.20;;
2041;SDS011;1026;51.460;7.252;2022-12-10T10:46:50;21.20;;;13.00;;
2041;SDS011;1026;51.460;7.252;2022-12-10T10:52:05;24.52;;;16.50;;
2041;SDS011;1026;51.460;7.252;2022-12-10T10:54:42;24.67;;;15.63;;
2041;SDS011;1026;51.460;7.252;2022-12-10T10:57:12;23.80;;;14.80;;
2041;SDS011;1026;51.460;7.252;2022-12-10T10:59:55;22.83;;;12.63;;
2041;SDS011;1026;51.460;7.252;2022-12-10T11:02:30;25.60;;;14.00;;
2041;SDS011;1026;51.460;7.252;2022-12-10T11:05:08;19.10;;;12.83;;
2041;SDS011;1026;51.460;7.252;2022-12-10T11:07:45;21.73;;;11.90;;
2041;SDS011;1026;51.460;7.252;2022-12-10T11:10:16;22.47;;;14.30;;
2041;SDS011;1026;51.460;7.252;2022-12-10T11:12:44;23.40;;;14.07;;
2041;SDS011;1026;51.460;7.252;2022-12-10T11:17:47;27.40;;;15.67;;
2041;SDS011;1026;51.460;7.252;2022-12-10T11:20:17;23.67;;;13.37;;
2041;SDS011;1026;51.460;7.252;2022-12-10T11:22:50;29.80;;;13.57;;
2041;SDS011;1026;51.460;7.252;2022-12-10T11:25:19;22.20;;;14.20;;
2041;SDS011;1026;51.460;7.252;2022-12-10T11:30:49;23.10;;;13.37;;
2041;SDS011;1026;51.460;7.252;2022-12-10T11:33:27;29.80;;;16.30;;
2041;SDS011;1026;51.460;7.252;2022-12-10T11:38:54;25.23;;;14.70;;
2041;SDS011;1026;51.460;7.252;2022-12-10T11:56:10;26.43;;;13.93;;
2041;SDS011;1026;51.460;7.252;2022-12-10T12:01:41;26.00;;;14.03;;
2041;SDS011;1026;51.460;7.252;2022-12-10T12:15:28;28.67;;;17.40;;
2041;SDS011;1026;51.460;7.252;2022-12-10T12:17:56;30.83;;;16.60;;
2041;SDS011;1026;51.460;7.252;2022-12-10T12:20:29;22.53;;;13.60;;
2041;SDS011;1026;51.460;7.252;2022-12-10T12:23:00;28.40;;;18.13;;
2041;SDS011;1026;51.460;7.252;2022-12-10T12:25:36;30.23;;;17.07;;
2041;SDS011;1026;51.460;7.252;2022-12-10T12:28:11;28.17;;;15.90;;
2041;SDS011;1026;51.460;7.252;2022-12-10T12:30:45;23.90;;;13.83;;
2041;SDS011;1026;51.460;7.252;2022-12-10T12:33:19;24.30;;;15.03;;
2041;SDS011;1026;51.460;7.252;2022-12-10T12:35:49;28.00;;;14.90;;
2041;SDS011;1026;51.460;7.252;2022-12-10T12:38:30;26.17;;;14.70;;
2041;SDS011;1026;51.460;7.252;2022-12-10T12:41:05;25.47;;;14.40;;
2041;SDS011;1026;51.460;7.252;2022-12-10T12:43:51;27.60;;;15.97;;
2041;SDS011;1026;51.460;7.252;2022-12-10T12:46:26;25.37;;;14.13;;
2041;SDS011;1026;51.460;7.252;2022-12-10T12:49:02;27.17;;;16.80;;
2041;SDS011;1026;51.460;7.252;2022-12-10T12:54:19;21.87;;;15.00;;
2041;SDS011;1026;51.460;7.252;2022-12-10T12:56:52;23.20;;;14.80;;
2041;SDS011;1026;51.460;7.252;2022-12-10T13:02:22;27.20;;;14.73;;
2041;SDS011;1026;51.460;7.252;2022-12-10T13:05:12;27.00;;;16.63;;
2041;SDS011;1026;51.460;7.252;2022-12-10T13:07:41;26.67;;;15.40;;
2041;SDS011;1026;51.460;7.252;2022-12-10T13:10:09;26.50;;;15.87;;
2041;SDS011;1026;51.460;7.252;2022-12-10T13:12:49;28.90;;;15.50;;
2041;SDS011;1026;51.460;7.252;2022-12-10T13:15:19;26.83;;;13.83;;
2041;SDS011;1026;51.460;7.252;2022-12-10T13:20:32;24.17;;;14.40;;
2041;SDS011;1026;51.460;7.252;2022-12-10T13:23:01;23.87;;;17.13;;
2041;SDS011;1026;51.460;7.252;2022-12-10T13:25:37;26.90;;;15.80;;
2041;SDS011;1026;51.460;7.252;2022-12-10T13:28:22;27.33;;;15.23;;
2041;SDS011;1026;51.460;7.252;2022-12-10T13:36:37;23.73;;;13.53;;
2041;SDS011;1026;51.460;7.252;2022-12-10T13:39:31;32.97;;;16.40;;
2041;SDS011;1026;51.460;7.252;2022-12-10T13:45:01;23.80;;;15.83;;
2041;SDS011;1026;51.460;7.252;2022-12-10T13:47:44;24.13;;;14.40;;
2041;SDS011;1026;51.460;7.252;2022-12-10T13:50:17;30.30;;;17.73;;
2041;SDS011;1026;51.460;7.252;2022-12-10T13:52:53;26.57;;;15.67;;
2041;SDS011;1026;51.460;7.252;2022-12-10T13:58:26;25.40;;;14.23;;
2041;SDS011;1026;51.460;7.252;2022-12-10T14:06:17;35.10;;;17.37;;
2041;SDS011;1026;51.460;7.252;2022-12-10T14:08:51;29.87;;;15.80;;
2041;SDS011;1026;51.460;7.252;2022-12-10T14:11:23;25.60;;;15.50;;
2041;SDS011;1026;51.460;7.252;2022-12-10T14:13:54;32.73;;;16.53;;
2041;SDS011;1026;51.460;7.252;2022-12-10T14:16:23;23.27;;;14.30;;
2041;SDS011;1026;51.460;7.252;2022-12-10T14:18:53;27.60;;;15.07;;
2041;SDS011;1026;51.460;7.252;2022-12-10T14:21:22;29.23;;;15.47;;
2041;SDS011;1026;51.460;7.252;2022-12-10T14:23:49;28.00;;;16.97;;
2041;SDS011;1026;51.460;7.252;2022-12-10T14:26:17;22.60;;;14.37;;
2041;SDS011;1026;51.460;7.252;2022-12-10T14:28:48;28.03;;;15.80;;
2041;SDS011;1026;51.460;7.252;2022-12-10T14:31:20;31.17;;;16.73;;
2041;SDS011;1026;51.460;7.252;2022-12-10T14:33:50;26.03;;;14.93;;
2041;SDS011;1026;51.460;7.252;2022-12-10T14:36:21;29.47;;;15.37;;
2041;SDS011;1026;51.460;7.252;2022-12-10T14:38:52;30.47;;;16.47;;
2041;SDS011;1026;51.460;7.252;2022-12-10T14:41:19;29.07;;;17.07;;
2041;SDS011;1026;51.460;7.252;2022-12-10T14:43:47;31.57;;;17.23;;
2041;SDS011;1026;51.460;7.252;2022-12-10T14:46:16;30.83;;;16.37;;
2041;SDS011;1026;51.460;7.252;2022-12-10T14:48:46;26.33;;;15.90;;
2041;SDS011;1026;51.460;7.252;2022-12-10T14:51:14;27.80;;;14.60;;
2041;SDS011;1026;51.460;7.252;2022-12-10T14:53:44;29.10;;;16.10;;
2041;SDS011;1026;51.460;7.252;2022-12-10T14:56:11;25.47;;;15.40;;
2041;SDS011;1026;51.460;7.252;2022-12-10T14:58:47;29.23;;;15.37;;
2041;SDS011;1026;51.460;7.252;2022-12-10T15:01:29;26.63;;;14.97;;
2041;SDS011;1026;51.460;7.252;2022-12-10T15:04:00;23.47;;;15.60;;
2041;SDS011;1026;51.460;7.252;2022-12-10T15:06:28;27.40;;;16.10;;
2041;SDS011;1026;51.460;7.252;2022-12-10T15:08:59;27.97;;;15.70;;
2041;SDS011;1026;51.460;7.252;2022-12-10T15:11:25;27.83;;;16.30;;
2041;SDS011;1026;51.460;7.252;2022-12-10T15:13:53;29.47;;;15.27;;
2041;SDS011;1026;51.460;7.252;2022-12-10T15:16:31;25.63;;;14.60;;
2041;SDS011;1026;51.460;7.252;2022-12-10T15:19:06;28.37;;;15.87;;
2041;SDS011;1026;51.460;7.252;2022-12-10T15:21:33;17.77;;;13.23;;
2041;SDS011;1026;51.460;7.252;2022-12-10T15:26:52;32.57;;;18.60;;
2041;SDS011;1026;51.460;7.252;2022-12-10T15:29:30;30.77;;;19.48;;
2041;SDS011;1026;51.460;7.252;2022-12-10T15:32:00;30.10;;;19.10;;
2041;SDS011;1026;51.460;7.252;2022-12-10T15:34:29;32.97;;;16.77;;
2041;SDS011;1026;51.460;7.252;2022-12-10T15:37:03;26.73;;;16.90;;
2041;SDS011;1026;51.460;7.252;2022-12-10T15:39:32;22.43;;;14.63;;
2041;SDS011;1026;51.460;7.252;2022-12-10T15:42:06;24.47;;;16.57;;
2041;SDS011;1026;51.460;7.252;2022-12-10T15:44:36;28.17;;;15.30;;
2041;SDS011;1026;51.460;7.252;2022-12-10T15:49:46;34.27;;;17.73;;
2041;SDS011;1026;51.460;7.252;2022-12-10T15:52:13;26.33;;;15.83;;
2041;SDS011;1026;51.460;7.252;2022-12-10T15:54:41;27.50;;;14.60;;
2041;SDS011;1026;51.460;7.252;2022-12-10T15:57:13;28.00;;;16.77;;
2041;SDS011;1026;51.460;7.252;2022-12-10T15:59:41;27.00;;;14.70;;
2041;SDS011;1026;51.460;7.252;2022-12-10T16:07:52;22.10;;;13.37;;
2041;SDS011;1026;51.460;7.252;2022-12-10T16:10:20;26.80;;;14.93;;
2041;SDS011;1026;51.460;7.252;2022-12-10T16:12:57;29.00;;;15.97;;
2041;SDS011;1026;51.460;7.252;2022-12-10T16:15:26;25.57;;;15.73;;
2041;SDS011;1026;51.460;7.252;2022-12-10T16:17:55;24.10;;;15.20;;
2041;SDS011;1026;51.460;7.252;2022-12-10T16:20:23;25.77;;;15.93;;
2041;SDS011;1026;51.460;7.252;2022-12-10T16:22:52;22.00;;;14.33;;
2041;SDS011;1026;51.460;7.252;2022-12-10T16:25:19;21.80;;;14.60;;
2041;SDS011;1026;51.460;7.252;2022-12-10T16:27:45;32.00;;;16.63;;
2041;SDS011;1026;51.460;7.252;2022-12-10T16:30:12;21.50;;;13.60;;
2041;SDS011;1026;51.460;7.252;2022-12-10T16:32:40;23.83;;;15.37;;
2041;SDS011;1026;51.460;7.252;2022-12-10T16:35:06;24.47;;;15.10;;
2041;SDS011;1026;51.460;7.252;2022-12-10T16:37:32;24.10;;;15.00;;
2041;SDS011;1026;51.460;7.252;2022-12-10T16:39:58;24.80;;;15.40;;
2041;SDS011;1026;51.460;7.252;2022-12-10T16:42:23;25.20;;;15.70;;
2041;SDS011;1026;51.460;7.252;2022-12-10T16:44:49;24.27;;;14.23;;